Time;durP1;ratioP1;P1;durP2;ratioP2;P2;SDS_P1;SDS_P2;PMS_P1;PMS_P2;Temp;Humidity;BMP_temperature;BMP_pressure;BME280_temperature;BME280_humidity;BME280_pressure;Samples;Min_cycle;Max_cycle;Signal;HPM_P1;HPM_P2
2024/03/05 00:00:58;;;;;;;4.28;0.65;;;;;;;10.19;92.86;100017.13;5108217;27;20034;-68
2024/03/05 00:03:24;;;;;;;4.15;0.63;;;;;;;10.18;94.17;100016.31;5130487;27;20508;-67
2024/03/05 00:05:50;;;;;;;4.75;0.30;;;;;;;10.25;93.39;100022.56;5131874;27;20115;-66
2024/03/05 00:08:16;;;;;;;6.55;0.50;;;;;;;10.25;93.07;100025.19;5124722;27;20085;-67
2024/03/05 00:10:41;;;;;;;8.75;0.60;;;;;;;10.23;91.16;100023.69;5130573;27;20059;-66
2024/03/05 00:13:07;;;;;;;3.15;0.30;;;;;;;10.22;92.60;100022.88;5131115;27;20023;-67
2024/03/05 00:15:33;;;;;;;2.65;0.40;;;;;;;10.28;94.07;100026.66;5131860;27;20031;-67
2024/03/05 00:17:58;;;;;;;8.02;0.70;;;;;;;10.26;91.72;100026.81;5128008;27;20042;-67
2024/03/05 00:20:24;;;;;;;3.92;0.40;;;;;;;10.27;91.29;100030.22;5125626;27;20123;-67
2024/03/05 00:22:50;;;;;;;8.43;0.50;;;;;;;10.29;91.14;100029.13;5122999;27;20537;-67
2024/03/05 00:25:16;;;;;;;10.13;0.80;;;;;;;10.28;90.36;100032.69;5126043;27;20102;-67
2024/03/05 00:27:42;;;;;;;6.47;0.60;;;;;;;10.26;89.97;100026.81;5126592;27;20126;-67
2024/03/05 00:30:09;;;;;;;6.18;0.40;;;;;;;10.21;90.71;100029.06;5124792;27;20105;-66
2024/03/05 00:32:37;;;;;;;6.78;0.50;;;;;;;10.19;90.74;100038.81;5129797;27;20023;-67
2024/03/05 00:35:06;;;;;;;7.00;0.50;;;;;;;10.17;93.33;100035.50;5123913;27;20375;-67
2024/03/05 00:37:31;;;;;;;4.75;0.38;;;;;;;10.11;92.92;100038.72;5124047;27;20043;-67
2024/03/05 00:39:58;;;;;;;9.18;0.93;;;;;;;10.12;95.07;100049.94;5112632;27;20083;-67
2024/03/05 00:42:23;;;;;;;7.88;0.57;;;;;;;10.09;96.20;100038.03;5130336;27;20023;-67
2024/03/05 00:44:49;;;;;;;2.85;0.30;;;;;;;10.11;96.81;100046.53;5123707;27;20027;-66
2024/03/05 00:47:14;;;;;;;6.05;0.38;;;;;;;10.12;97.08;100048.16;5125835;27;20046;-67
2024/03/05 00:49:40;;;;;;;12.35;1.00;;;;;;;10.06;94.42;100043.56;5128390;27;20114;-67
2024/03/05 00:52:05;;;;;;;8.82;0.50;;;;;;;10.05;94.52;100051.50;5126336;27;20028;-67
2024/03/05 00:54:31;;;;;;;5.45;0.70;;;;;;;10.03;94.67;100048.25;5126803;27;20035;-67
2024/03/05 00:56:56;;;;;;;7.35;0.60;;;;;;;9.99;94.69;100048.53;5121212;27;20023;-67
2024/03/05 00:59:22;;;;;;;4.00;0.40;;;;;;;9.96;95.39;100046.25;5125867;27;20035;-67
2024/03/05 01:01:48;;;;;;;7.35;0.52;;;;;;;9.95;95.57;100043.78;5128741;27;20038;-67
2024/03/05 01:04:14;;;;;;;3.90;0.30;;;;;;;9.94;95.86;100052.56;5130042;27;20507;-67
2024/03/05 01:06:45;;;;;;;5.45;0.45;;;;;;;9.93;97.64;100049.13;5131091;27;20026;-66
2024/03/05 01:09:15;;;;;;;9.38;0.30;;;;;;;9.89;98.84;100042.63;5127466;27;20027;-67
2024/03/05 01:11:41;;;;;;;10.98;0.80;;;;;;;9.81;100.00;100049.53;5131310;27;20138;-67
2024/03/05 01:14:06;;;;;;;4.00;0.55;;;;;;;9.69;100.00;100050.72;5130174;27;20058;-67
2024/03/05 01:16:32;;;;;;;14.48;2.05;;;;;;;9.53;100.00;100052.19;5130228;27;20046;-67
2024/03/05 01:18:57;;;;;;;8.23;1.30;;;;;;;9.48;100.00;100049.22;5110243;27;20034;-67
2024/03/05 01:21:23;;;;;;;11.70;1.80;;;;;;;9.55;100.00;100047.66;5130108;27;20019;-67
2024/03/05 01:23:48;;;;;;;5.47;2.10;;;;;;;9.54;100.00;100043.44;5107568;27;20032;-67
2024/03/05 01:26:14;;;;;;;16.90;2.50;;;;;;;9.52;100.00;100041.94;5129995;27;20347;-67
2024/03/05 01:28:40;;;;;;;6.80;1.55;;;;;;;9.44;100.00;100047.91;5130973;27;20031;-67
2024/03/05 01:31:05;;;;;;;10.82;2.80;;;;;;;9.38;100.00;100048.50;5128799;27;20072;-67
2024/03/05 01:33:31;;;;;;;11.23;2.63;;;;;;;9.31;100.00;100045.66;5105299;28;20024;-67
2024/03/05 01:35:56;;;;;;;8.48;2.65;;;;;;;9.26;100.00;100045.28;5104855;28;20035;-67
2024/03/05 01:38:22;;;;;;;13.90;2.83;;;;;;;9.21;100.00;100044.91;5128491;27;20023;-67
2024/03/05 01:40:47;;;;;;;10.95;2.08;;;;;;;9.15;100.00;100044.66;5127964;27;20049;-67
2024/03/05 01:43:14;;;;;;;9.10;2.67;;;;;;;9.09;100.00;100038.25;5130381;27;20091;-68
2024/03/05 01:45:42;;;;;;;9.65;2.95;;;;;;;9.06;100.00;100042.91;5134169;27;20076;-68
2024/03/05 01:48:08;;;;;;;9.60;2.33;;;;;;;8.95;100.00;100036.97;5131912;27;20141;-67
2024/03/05 01:50:35;;;;;;;10.40;2.35;;;;;;;8.86;100.00;100032.66;5135154;27;20031;-67
2024/03/05 01:53:02;;;;;;;6.18;2.28;;;;;;;8.83;100.00;100030.34;5132552;27;20109;-66
2024/03/05 01:55:29;;;;;;;14.68;3.47;;;;;;;8.85;100.00;100033.59;5115443;27;20539;-67
2024/03/05 01:57:56;;;;;;;5.65;1.40;;;;;;;8.95;100.00;100030.97;5134610;27;20038;-67
2024/03/05 02:00:23;;;;;;;5.63;1.67;;;;;;;8.91;100.00;100030.44;5132991;27;20118;-67
2024/03/05 02:02:49;;;;;;;13.55;2.28;;;;;;;8.89;100.00;100028.94;5115054;27;20041;-67
2024/03/05 02:05:15;;;;;;;7.97;1.65;;;;;;;8.83;100.00;100016.53;5133474;27;20035;-67
2024/03/05 02:07:41;;;;;;;6.07;1.38;;;;;;;8.78;100.00;100019.56;5134630;27;20385;-67
2024/03/05 02:10:09;;;;;;;3.20;0.80;;;;;;;8.71;100.00;100023.69;5133853;27;20043;-67
2024/03/05 02:12:38;;;;;;;2.65;0.50;;;;;;;8.88;100.00;100020.34;5104175;27;20051;-67
2024/03/05 02:15:11;;;;;;;9.23;0.68;;;;;;;8.95;100.00;100016.19;5132713;27;20074;-67
2024/03/05 02:17:38;;;;;;;11.73;0.60;;;;;;;8.99;100.00;100020.13;5128476;27;20042;-67
2024/03/05 02:20:07;;;;;;;5.07;0.70;;;;;;;9.03;100.00;100027.63;5127235;27;20035;-67
2024/03/05 02:22:32;;;;;;;4.70;0.50;;;;;;;8.91;100.00;100025.25;5130677;27;20031;-66
2024/03/05 02:24:58;;;;;;;8.88;0.50;;;;;;;8.69;100.00;100024.78;5130368;27;20090;-66
2024/03/05 02:27:23;;;;;;;3.97;0.75;;;;;;;8.45;100.00;100028.72;5129589;27;20031;-67
2024/03/05 02:29:50;;;;;;;5.00;0.50;;;;;;;8.36;100.00;100029.56;5132532;27;20503;-67
2024/03/05 02:32:16;;;;;;;5.80;0.65;;;;;;;8.36;100.00;100034.75;5128604;27;20027;-66
2024/03/05 02:34:41;;;;;;;9.70;0.60;;;;;;;8.48;100.00;100031.03;5133829;27;20034;-67
2024/03/05 02:37:10;;;;;;;7.43;0.50;;;;;;;8.63;100.00;100034.78;5127392;27;20526;-67
2024/03/05 02:39:35;;;;;;;3.50;0.30;;;;;;;8.77;100.00;100023.13;5132618;27;20092;-67
2024/03/05 02:42:01;;;;;;;6.78;0.57;;;;;;;8.79;100.00;100025.56;5131352;27;20024;-67
2024/03/05 02:44:27;;;;;;;5.50;0.55;;;;;;;8.79;100.00;100030.75;5127234;27;20046;-67
2024/03/05 02:46:52;;;;;;;13.02;0.47;;;;;;;8.74;100.00;100023.41;5131216;27;20114;-67
2024/03/05 02:49:19;;;;;;;4.03;0.68;;;;;;;8.71;100.00;100028.06;5129832;27;20020;-67
2024/03/05 02:51:46;;;;;;;7.43;0.50;;;;;;;8.70;100.00;100029.84;5133575;27;20035;-67
2024/03/05 02:54:11;;;;;;;3.00;0.35;;;;;;;8.67;100.00;100034.50;5128874;27;20465;-66
2024/03/05 02:56:37;;;;;;;8.23;0.50;;;;;;;8.62;100.00;100029.72;5130127;27;20080;-67
2024/03/05 02:59:03;;;;;;;10.60;0.73;;;;;;;8.57;100.00;100026.72;5129976;27;20470;-66
2024/03/05 03:01:28;;;;;;;5.60;0.50;;;;;;;8.55;100.00;100029.47;5126998;27;20155;-66
2024/03/05 03:03:54;;;;;;;5.68;0.40;;;;;;;8.57;100.00;100032.75;5131169;27;20401;-66
2024/03/05 03:06:19;;;;;;;14.90;1.30;;;;;;;8.56;100.00;100030.28;5130197;27;20500;-67
2024/03/05 03:08:45;;;;;;;5.78;0.35;;;;;;;8.56;100.00;100025.09;5132784;27;20023;-67
2024/03/05 03:11:17;;;;;;;17.42;1.02;;;;;;;8.51;100.00;100022.09;5132280;27;20043;-67
2024/03/05 03:13:46;;;;;;;9.13;0.50;;;;;;;8.51;100.00;100022.09;5133508;27;20039;-67
2024/03/05 03:16:13;;;;;;;4.85;0.55;;;;;;;8.46;100.00;100026.94;5129114;27;20032;-66
2024/03/05 03:18:39;;;;;;;3.65;0.50;;;;;;;8.27;100.00;100027.75;5130469;27;20051;-67
2024/03/05 03:21:04;;;;;;;5.90;0.60;;;;;;;8.04;100.00;100029.84;5108349;27;20039;-66
2024/03/05 03:23:30;;;;;;;8.85;0.90;;;;;;;7.86;100.00;100029.75;5132226;27;20106;-67
2024/03/05 03:25:58;;;;;;;7.53;0.98;;;;;;;7.78;100.00;100026.19;5111388;27;20042;-66
2024/03/05 03:28:23;;;;;;;8.20;1.00;;;;;;;7.68;100.00;100031.38;5132097;27;20114;-67
2024/03/05 03:30:52;;;;;;;2.28;0.70;;;;;;;7.73;100.00;100030.97;5130758;27;20126;-67
2024/03/05 03:33:18;;;;;;;3.38;0.35;;;;;;;7.86;100.00;100026.31;5131305;27;20034;-66
2024/03/05 03:35:44;;;;;;;5.03;0.50;;;;;;;8.09;100.00;100032.03;5114044;27;20039;-66
2024/03/05 03:38:09;;;;;;;4.38;0.60;;;;;;;8.16;100.00;100026.13;5132153;27;20027;-66
2024/03/05 03:40:35;;;;;;;10.30;0.30;;;;;;;8.25;100.00;100032.28;5131295;27;20088;-66
2024/03/05 03:43:01;;;;;;;1.88;0.60;;;;;;;8.21;100.00;100029.13;5131919;27;20050;-66
2024/03/05 03:45:27;;;;;;;9.30;0.70;;;;;;;8.23;100.00;100029.81;5131329;27;20027;-67
2024/03/05 03:47:52;;;;;;;3.33;0.20;;;;;;;8.26;100.00;100031.31;5130694;27;20076;-66
2024/03/05 03:50:18;;;;;;;5.53;0.45;;;;;;;8.25;100.00;100033.09;5131815;27;20026;-68
2024/03/05 03:52:43;;;;;;;4.97;0.40;;;;;;;8.26;100.00;100029.53;5132331;27;20031;-68
2024/03/05 03:55:09;;;;;;;11.52;0.57;;;;;;;8.22;100.00;100032.56;5131852;27;20042;-67
2024/03/05 03:57:35;;;;;;;2.28;0.40;;;;;;;8.21;100.00;100031.72;5132218;27;20466;-67
2024/03/05 04:00:07;;;;;;;5.25;0.40;;;;;;;8.18;100.00;100023.41;5130422;27;20351;-68
2024/03/05 04:02:36;;;;;;;5.18;0.50;;;;;;;8.15;100.00;100027.09;5132130;27;20080;-67
2024/03/05 04:05:04;;;;;;;4.32;0.95;;;;;;;8.14;100.00;100029.81;5131282;27;20023;-68
2024/03/05 04:07:31;;;;;;;6.32;0.43;;;;;;;8.14;100.00;100035.84;5131972;27;20376;-68
2024/03/05 04:09:59;;;;;;;5.78;0.35;;;;;;;8.12;100.00;100031.75;5129520;27;20054;-68
2024/03/05 04:12:25;;;;;;;8.45;0.45;;;;;;;8.10;100.00;100031.88;5130137;27;20481;-67
2024/03/05 04:14:51;;;;;;;4.53;0.40;;;;;;;8.06;100.00;100035.72;5130836;27;20031;-67
2024/03/05 04:17:19;;;;;;;5.15;0.40;;;;;;;8.06;100.00;100034.88;5129173;27;20130;-67
2024/03/05 04:19:45;;;;;;;6.90;0.47;;;;;;;8.09;100.00;100035.44;5131461;27;20111;-67
2024/03/05 04:22:10;;;;;;;6.53;0.40;;;;;;;8.15;100.00;100039.25;5131030;27;20114;-68
2024/03/05 04:24:37;;;;;;;8.85;0.50;;;;;;;8.13;100.00;100036.78;5131588;27;20035;-66
2024/03/05 04:27:03;;;;;;;6.22;0.40;;;;;;;8.10;100.00;100041.44;5127207;27;20036;-66
2024/03/05 04:29:30;;;;;;;3.50;0.32;;;;;;;8.06;100.00;100042.66;5130205;27;20034;-67
2024/03/05 04:32:05;;;;;;;6.20;0.47;;;;;;;8.08;100.00;100038.97;5131606;27;20047;-66
2024/03/05 04:34:35;;;;;;;5.60;0.45;;;;;;;8.11;100.00;100040.47;5131724;27;20031;-67
2024/03/05 04:37:01;;;;;;;6.43;0.68;;;;;;;8.09;100.00;100042.41;5130490;27;20046;-67
2024/03/05 04:39:27;;;;;;;12.48;0.55;;;;;;;8.09;100.00;100048.41;5131438;27;20027;-66
2024/03/05 04:41:53;;;;;;;3.38;0.20;;;;;;;8.08;100.00;100044.19;5131763;27;20029;-66
2024/03/05 04:44:18;;;;;;;5.57;0.40;;;;;;;8.11;100.00;100040.47;5129388;27;20470;-66
2024/03/05 04:46:44;;;;;;;7.80;0.30;;;;;;;8.04;100.00;100055.78;5131282;27;20027;-66
2024/03/05 04:49:09;;;;;;;9.73;0.70;;;;;;;8.01;100.00;100047.50;5130389;27;20053;-67
2024/03/05 04:51:35;;;;;;;2.40;0.30;;;;;;;7.94;100.00;100045.44;5131375;27;20031;-66
2024/03/05 04:54:00;;;;;;;4.30;0.73;;;;;;;7.87;100.00;100046.94;5130751;27;20467;-66
2024/03/05 04:56:26;;;;;;;15.18;0.68;;;;;;;7.84;100.00;100047.22;5131123;27;20092;-67
2024/03/05 04:58:51;;;;;;;7.88;0.20;;;;;;;7.83;100.00;100044.75;5129812;27;20051;-66
2024/03/05 05:01:17;;;;;;;5.43;0.57;;;;;;;7.85;100.00;100045.44;5130399;27;20531;-66
2024/03/05 05:03:43;;;;;;;5.95;0.50;;;;;;;7.87;100.00;100048.72;5130299;27;20034;-67
2024/03/05 05:06:08;;;;;;;5.63;0.35;;;;;;;7.86;100.00;100047.91;5129299;27;20019;-67
2024/03/05 05:08:35;;;;;;;2.40;0.40;;;;;;;7.87;100.00;100046.13;5127940;27;20035;-66
2024/03/05 05:11:00;;;;;;;5.20;0.35;;;;;;;7.81;100.00;100052.69;5125868;27;20062;-67
2024/03/05 05:13:26;;;;;;;3.95;0.40;;;;;;;7.81;100.00;100054.44;5128415;27;20043;-67
2024/03/05 05:15:54;;;;;;;4.18;0.40;;;;;;;7.79;100.00;100064.13;5128795;27;20462;-67
2024/03/05 05:18:19;;;;;;;3.47;1.05;;;;;;;7.78;100.00;100059.91;5131012;27;20031;-66
2024/03/05 05:20:46;;;;;;;5.80;0.60;;;;;;;7.73;100.00;100051.72;5129668;27;20506;-67
2024/03/05 05:23:11;;;;;;;3.17;0.60;;;;;;;7.69;100.00;100056.34;5126569;27;20035;-67
2024/03/05 05:25:37;;;;;;;6.18;0.40;;;;;;;7.72;100.00;100060.44;5124566;27;20385;-67
2024/03/05 05:28:06;;;;;;;1.83;0.35;;;;;;;7.68;100.00;100049.53;5128819;27;20423;-67
2024/03/05 05:30:31;;;;;;;1.70;0.60;;;;;;;7.69;100.00;100058.13;5129422;27;20165;-67
2024/03/05 05:32:57;;;;;;;2.95;0.50;;;;;;;7.71;100.00;100051.84;5128941;27;20077;-66
2024/03/05 05:35:23;;;;;;;3.10;0.70;;;;;;;7.74;100.00;100055.94;5129967;27;20131;-66
2024/03/05 05:37:49;;;;;;;8.65;0.40;;;;;;;7.75;100.00;100052.41;5127531;27;20126;-67
2024/03/05 05:40:16;;;;;;;2.10;0.40;;;;;;;7.75;100.00;100052.41;5129510;27;20122;-67
2024/03/05 05:42:47;;;;;;;6.20;0.50;;;;;;;7.75;100.00;100057.59;5125773;27;20092;-67
2024/03/05 05:45:12;;;;;;;7.75;0.43;;;;;;;7.79;100.00;100061.53;5128120;27;20065;-66
2024/03/05 05:47:42;;;;;;;6.90;0.90;;;;;;;7.77;100.00;100053.91;5125535;27;20066;-67
2024/03/05 05:50:17;;;;;;;7.28;0.30;;;;;;;7.78;100.00;100054.72;5125167;27;20023;-67
2024/03/05 05:52:48;;;;;;;10.00;0.40;;;;;;;7.77;100.00;100056.50;5109470;28;20083;-66
2024/03/05 05:55:15;;;;;;;5.60;0.30;;;;;;;7.84;100.00;100059.38;5127999;27;20379;-67
2024/03/05 05:57:45;;;;;;;7.88;0.60;;;;;;;7.85;100.00;100067.00;5129911;27;20056;-66
2024/03/05 06:00:22;;;;;;;8.63;0.43;;;;;;;7.89;100.00;100065.78;5126420;27;20035;-67
2024/03/05 06:02:55;;;;;;;7.28;0.40;;;;;;;7.92;100.00;100067.28;5123927;27;20019;-67
2024/03/05 06:05:28;;;;;;;4.80;0.35;;;;;;;7.91;100.00;100070.84;5128647;27;20047;-67
2024/03/05 06:07:53;;;;;;;6.82;0.60;;;;;;;7.92;100.00;100069.88;5109730;28;20031;-67
2024/03/05 06:10:22;;;;;;;18.70;0.60;;;;;;;7.98;100.00;100071.94;5129449;27;20138;-67
2024/03/05 06:12:50;;;;;;;8.23;0.52;;;;;;;8.02;100.00;100070.69;5129455;27;20031;-66
2024/03/05 06:15:19;;;;;;;2.75;0.28;;;;;;;8.08;100.00;100066.72;5109947;27;20032;-66
2024/03/05 06:17:45;;;;;;;10.52;0.47;;;;;;;8.13;99.97;100067.94;5127757;27;20058;-67
2024/03/05 06:20:12;;;;;;;11.00;1.55;;;;;;;8.12;99.40;100063.69;5129137;27;20041;-67
2024/03/05 06:22:44;;;;;;;7.03;1.10;;;;;;;7.97;100.00;100070.28;5130341;27;20042;-67
2024/03/05 06:25:26;;;;;;;3.33;1.15;;;;;;;7.81;100.00;100070.00;5129525;27;20023;-67
2024/03/05 06:27:52;;;;;;;5.47;1.88;;;;;;;7.73;100.00;100069.88;5107054;28;20521;-66
2024/03/05 06:30:18;;;;;;;11.65;1.27;;;;;;;7.73;100.00;100078.47;5105615;27;20028;-66
2024/03/05 06:32:48;;;;;;;10.63;2.08;;;;;;;7.75;100.00;100086.09;5131577;27;20027;-66
2024/03/05 06:35:14;;;;;;;11.80;1.30;;;;;;;7.85;100.00;100079.97;5109179;27;20048;-68
2024/03/05 06:37:46;;;;;;;6.25;1.35;;;;;;;7.92;100.00;100090.63;5133907;27;20075;-66
2024/03/05 06:40:13;;;;;;;10.73;0.73;;;;;;;8.05;100.00;100093.75;5131730;27;20035;-67
2024/03/05 06:42:41;;;;;;;16.30;0.55;;;;;;;8.26;100.00;100083.22;5133687;27;20079;-67
2024/03/05 06:45:08;;;;;;;6.18;0.75;;;;;;;8.40;99.31;100098.41;5133214;27;20498;-66
2024/03/05 06:47:44;;;;;;;2.67;0.50;;;;;;;8.54;97.53;100104.91;5129977;27;20034;-66
2024/03/05 06:50:19;;;;;;;5.30;1.20;;;;;;;8.63;96.87;100106.69;5132979;27;20042;-66
2024/03/05 06:58:15;;;;;;;5.60;0.80;;;;;;;8.78;96.76;100117.44;5133215;27;20041;-67
2024/03/05 07:00:40;;;;;;;4.82;0.40;;;;;;;8.85;95.68;100124.53;5133646;27;20360;-67
2024/03/05 07:03:06;;;;;;;5.15;0.68;;;;;;;8.92;94.27;100127.38;5132703;27;20027;-67
2024/03/05 07:05:32;;;;;;;4.63;0.55;;;;;;;9.00;94.35;100124.88;5131431;27;20031;-66
2024/03/05 07:08:00;;;;;;;2.85;0.40;;;;;;;9.29;93.56;100132.56;5133222;27;20098;-66
2024/03/05 07:10:28;;;;;;;7.43;0.32;;;;;;;9.41;93.14;100128.81;5132362;27;20054;-66
2024/03/05 07:12:55;;;;;;;5.60;0.75;;;;;;;9.47;91.71;100136.00;5128183;27;20035;-66
2024/03/05 07:15:21;;;;;;;3.33;0.52;;;;;;;9.61;91.55;100135.53;5128928;27;20044;-66
2024/03/05 07:17:48;;;;;;;12.77;0.50;;;;;;;9.56;91.75;100129.13;5131187;27;20058;-67
2024/03/05 07:20:22;;;;;;;6.85;0.38;;;;;;;9.53;90.80;100132.00;5130683;27;20138;-66
2024/03/05 07:22:55;;;;;;;7.75;0.40;;;;;;;9.58;90.39;100122.81;5127966;27;20027;-66
2024/03/05 07:25:22;;;;;;;11.35;0.40;;;;;;;9.71;89.03;100127.66;5131454;27;20038;-67
2024/03/05 07:27:48;;;;;;;9.80;0.55;;;;;;;10.01;88.64;100130.84;5130524;27;20525;-67
2024/03/05 07:30:15;;;;;;;7.22;0.40;;;;;;;10.53;86.52;100123.97;5132320;27;20141;-67
2024/03/05 07:32:45;;;;;;;4.07;0.40;;;;;;;10.77;84.66;100126.75;5130658;27;20046;-66
2024/03/05 07:35:11;;;;;;;7.75;0.50;;;;;;;10.69;84.71;100128.50;5130219;27;20034;-66
2024/03/05 07:37:37;;;;;;;5.35;0.30;;;;;;;10.84;84.21;100133.00;5131760;27;20031;-66
2024/03/05 07:40:16;;;;;;;2.83;0.40;;;;;;;10.51;86.71;100138.94;5131805;27;20088;-66
2024/03/05 07:42:48;;;;;;;9.07;0.57;;;;;;;10.22;86.99;100142.66;5131036;27;20497;-67
2024/03/05 07:45:20;;;;;;;2.58;0.30;;;;;;;10.26;86.62;100149.19;5130627;27;20179;-66
2024/03/05 07:47:47;;;;;;;6.22;0.30;;;;;;;10.31;88.40;100140.94;5127439;27;20023;-65
2024/03/05 07:50:14;;;;;;;14.05;0.47;;;;;;;10.32;86.94;100141.75;5128243;27;20362;-66
2024/03/05 07:52:43;;;;;;;7.75;0.40;;;;;;;10.37;87.36;100149.94;5111716;27;20157;-65
2024/03/05 07:55:11;;;;;;;10.45;0.55;;;;;;;10.38;87.37;100143.75;5131545;27;20515;-65
2024/03/05 07:57:39;;;;;;;6.22;0.20;;;;;;;10.42;86.48;100147.66;5132308;27;20058;-66
2024/03/05 08:00:11;;;;;;;9.68;0.68;;;;;;;10.48;86.11;100152.28;5129801;27;20084;-66
2024/03/05 08:02:47;;;;;;;5.57;0.40;;;;;;;10.78;84.18;100149.25;5127011;27;20031;-66
2024/03/05 08:05:21;;;;;;;;;;;;;;;11.09;81.42;100141.75;5112716;27;20038;-65
2024/03/05 08:07:48;;;;;;;14.73;0.52;;;;;;;11.04;81.81;100154.44;5131381;27;19915;-65
2024/03/05 08:10:16;;;;;;;9.18;0.57;;;;;;;10.91;84.34;100152.22;5131069;27;20413;-66
2024/03/05 08:12:43;;;;;;;2.33;0.25;;;;;;;10.80;85.37;100147.31;5107915;27;20433;-66
2024/03/05 08:15:12;;;;;;;2.67;0.22;;;;;;;10.79;84.97;100148.28;5131395;27;20034;-66
2024/03/05 08:17:46;;;;;;;7.32;0.90;;;;;;;10.81;84.58;100153.34;5127684;27;20027;-65
2024/03/05 08:20:18;;;;;;;17.70;0.60;;;;;;;10.84;84.20;100146.03;5131061;27;20057;-66
2024/03/05 08:22:46;;;;;;;6.20;0.75;;;;;;;10.87;85.37;100152.72;5110718;27;20114;-67
2024/03/05 08:25:18;;;;;;;9.77;0.75;;;;;;;10.93;83.53;100147.69;5130882;27;20039;-66
2024/03/05 08:27:47;;;;;;;8.82;0.40;;;;;;;11.10;82.54;100147.78;5129385;27;20031;-66
2024/03/05 08:30:24;;;;;;;11.27;0.63;;;;;;;11.18;83.83;100142.59;5109811;27;20101;-66
2024/03/05 08:32:52;;;;;;;2.53;0.50;;;;;;;11.20;83.24;100140.66;5129094;27;20466;-66
2024/03/05 08:35:18;;;;;;;1.98;0.20;;;;;;;11.25;82.75;100147.03;5129886;27;20483;-66
2024/03/05 08:37:46;;;;;;;2.75;0.30;;;;;;;11.38;83.40;100150.97;5130517;27;20126;-66
2024/03/05 08:40:16;;;;;;;4.45;0.22;;;;;;;11.44;84.31;100145.97;5130339;27;20146;-65
2024/03/05 08:42:43;;;;;;;8.43;0.77;;;;;;;11.54;82.09;100141.44;5131199;27;20030;-66
2024/03/05 08:45:16;;;;;;;6.68;0.57;;;;;;;11.63;82.17;100144.88;5107578;27;20041;-66
2024/03/05 08:47:46;;;;;;;5.88;0.40;;;;;;;11.71;81.59;100141.50;5120042;27;20119;-65
2024/03/05 08:50:12;;;;;;;2.72;0.38;;;;;;;11.82;82.92;100138.59;5130345;27;20043;-65
2024/03/05 08:52:39;;;;;;;10.80;0.50;;;;;;;12.00;83.50;100138.47;5131170;27;20023;-65
2024/03/05 08:55:08;;;;;;;8.43;0.70;;;;;;;12.16;80.46;100143.69;5130152;27;20042;-65
2024/03/05 08:57:42;;;;;;;9.02;0.40;;;;;;;12.36;81.16;100138.94;5131450;27;20038;-65
2024/03/05 09:00:17;;;;;;;4.43;0.40;;;;;;;12.55;81.21;100147.28;5130604;27;20031;-66
2024/03/05 09:02:43;;;;;;;2.53;0.40;;;;;;;12.65;78.70;100141.88;5131338;27;20308;-67
2024/03/05 09:05:12;;;;;;;4.72;0.45;;;;;;;12.68;81.25;100138.94;5121671;27;20030;-67
2024/03/05 09:07:38;;;;;;;12.23;0.75;;;;;;;12.71;80.60;100136.00;5125233;27;20023;-67
2024/03/05 09:10:07;;;;;;;4.15;0.50;;;;;;;12.71;76.83;100149.06;5129412;27;20093;-67
2024/03/05 09:12:34;;;;;;;8.10;0.80;;;;;;;12.79;80.12;100145.59;5130986;27;20078;-67
2024/03/05 09:15:00;;;;;;;6.32;0.30;;;;;;;12.69;79.72;100152.81;5130369;27;20081;-67
2024/03/05 09:17:26;;;;;;;9.63;0.70;;;;;;;12.70;80.29;100150.06;5129144;27;20103;-67
2024/03/05 09:19:52;;;;;;;3.00;0.40;;;;;;;12.96;80.41;100149.81;5130967;27;20041;-66
2024/03/05 09:22:19;;;;;;;6.40;0.63;;;;;;;12.95;82.29;100149.00;5129816;27;20027;-67
2024/03/05 09:24:45;;;;;;;4.63;0.40;;;;;;;12.98;81.95;100149.66;5106566;28;20439;-67
2024/03/05 09:27:10;;;;;;;8.38;0.30;;;;;;;13.05;81.38;100148.00;5129934;27;20023;-67
2024/03/05 09:29:36;;;;;;;5.38;0.30;;;;;;;13.18;81.70;100156.16;5133020;27;20046;-67
2024/03/05 09:32:02;;;;;;;5.32;0.38;;;;;;;13.29;77.87;100155.78;5130023;27;20032;-66
2024/03/05 09:34:28;;;;;;;16.70;0.50;;;;;;;13.28;79.49;100159.38;5130824;27;20045;-66
2024/03/05 09:36:56;;;;;;;6.88;0.40;;;;;;;13.37;81.79;100157.56;5130586;27;20605;-66
2024/03/05 09:39:22;;;;;;;13.70;0.57;;;;;;;13.40;82.24;100165.88;5129861;27;20535;-67
2024/03/05 09:41:48;;;;;;;6.53;0.77;;;;;;;13.49;80.04;100169.28;5130634;27;20031;-66
2024/03/05 09:44:15;;;;;;;4.25;0.60;;;;;;;13.53;79.89;100173.19;5129769;27;20030;-67
2024/03/05 09:46:45;;;;;;;4.25;0.50;;;;;;;13.66;80.27;100177.88;5129761;27;20443;-66
2024/03/05 09:49:13;;;;;;;5.28;0.60;;;;;;;13.66;78.17;100167.41;5123347;27;20046;-66
2024/03/05 09:51:39;;;;;;;3.15;0.30;;;;;;;13.65;74.27;100176.25;5130594;27;20370;-66
2024/03/05 09:54:07;;;;;;;7.40;0.60;;;;;;;13.87;75.13;100172.84;5129810;27;20043;-66
2024/03/05 09:56:35;;;;;;;9.30;0.52;;;;;;;13.85;77.85;100169.56;5130652;27;20054;-65
2024/03/05 09:59:04;;;;;;;3.30;0.50;;;;;;;13.77;82.72;100167.00;5129933;27;20031;-65
2024/03/05 10:01:32;;;;;;;6.68;0.77;;;;;;;13.76;84.52;100162.75;5124853;27;20023;-65
2024/03/05 10:04:00;;;;;;;7.97;0.55;;;;;;;13.78;84.80;100160.78;5130264;27;20030;-65
2024/03/05 10:06:26;;;;;;;4.63;0.60;;;;;;;13.82;85.52;100164.69;5134299;27;20035;-65
2024/03/05 10:08:51;;;;;;;5.70;0.70;;;;;;;13.81;85.98;100165.66;5134531;27;20050;-65
2024/03/05 10:11:17;;;;;;;6.75;0.30;;;;;;;13.80;86.83;100166.66;5133293;27;20490;-65
2024/03/05 10:13:43;;;;;;;8.10;0.63;;;;;;;13.81;86.57;100170.91;5134434;27;20039;-65
2024/03/05 10:16:24;;;;;;;4.95;0.40;;;;;;;13.83;85.79;100171.56;5133422;27;20114;-65
2024/03/05 10:18:50;;;;;;;4.32;0.40;;;;;;;13.92;86.55;100168.72;5134241;27;20029;-65
2024/03/05 10:21:25;;;;;;;5.55;0.40;;;;;;;13.99;87.30;100168.84;5133491;27;20028;-65
2024/03/05 10:23:58;;;;;;;7.53;0.63;;;;;;;14.12;84.05;100163.84;5133957;27;20038;-66
2024/03/05 10:26:27;;;;;;;7.80;0.55;;;;;;;14.18;85.34;100168.38;5133062;27;20071;-65
2024/03/05 10:29:04;;;;;;;7.32;0.80;;;;;;;14.33;85.97;100167.59;5133577;27;20054;-65
2024/03/05 10:31:29;;;;;;;6.95;0.30;;;;;;;14.48;86.86;100165.88;5133800;27;20023;-66
2024/03/05 10:33:58;;;;;;;7.10;0.32;;;;;;;14.63;86.13;100161.50;5133962;27;20409;-66
2024/03/05 10:36:32;;;;;;;5.03;0.30;;;;;;;14.76;84.56;100160.88;5133057;27;20401;-65
2024/03/05 10:38:58;;;;;;;6.75;0.55;;;;;;;14.84;84.94;100161.59;5133823;27;20023;-66
2024/03/05 10:41:31;;;;;;;14.27;0.70;;;;;;;14.90;84.78;100166.13;5132920;27;20453;-65
2024/03/05 10:44:00;;;;;;;8.80;0.95;;;;;;;15.01;84.66;100157.00;5133705;27;20122;-65
2024/03/05 10:46:27;;;;;;;6.38;0.40;;;;;;;15.10;82.38;100163.00;5133624;27;20031;-65
2024/03/05 10:48:53;;;;;;;5.90;0.20;;;;;;;15.07;84.94;100160.72;5126928;27;20031;-65
2024/03/05 10:51:21;;;;;;;9.07;0.40;;;;;;;15.10;84.73;100161.19;5132847;27;20074;-66
2024/03/05 10:53:50;;;;;;;6.22;0.30;;;;;;;15.13;80.28;100157.34;5133644;27;20084;-65
2024/03/05 10:56:20;;;;;;;9.05;0.30;;;;;;;15.14;83.46;100154.56;5114294;27;20039;-66
2024/03/05 11:01:18;;;;;;;2.78;0.40;;;;;;;14.84;77.21;100147.69;5132514;27;20380;-67
2024/03/05 11:03:45;;;;;;;5.80;0.20;;;;;;;14.97;82.99;100149.69;5133523;27;20037;-66
2024/03/05 11:06:13;;;;;;;8.48;0.25;;;;;;;15.04;82.71;100142.72;5132672;27;20513;-67
2024/03/05 11:08:43;;;;;;;9.48;0.22;;;;;;;15.02;82.18;100147.34;5108062;27;20037;-64
2024/03/05 11:11:18;;;;;;;5.38;0.30;;;;;;;14.91;81.11;100140.72;5132505;27;20131;-65
2024/03/05 11:13:49;;;;;;;3.97;0.15;;;;;;;14.83;81.50;100146.06;5133452;27;20049;-64
2024/03/05 11:16:15;;;;;;;5.95;0.60;;;;;;;14.77;82.66;100136.28;5130444;27;20038;-67
2024/03/05 11:18:41;;;;;;;6.80;0.30;;;;;;;14.84;77.23;100138.00;5133237;27;20035;-66
2024/03/05 11:21:14;;;;;;;6.30;0.30;;;;;;;14.89;78.07;100135.66;5132373;27;20027;-65
2024/03/05 11:23:52;;;;;;;5.00;0.57;;;;;;;15.09;77.26;100135.13;5127840;27;20439;-67
2024/03/05 11:26:22;;;;;;;1.83;0.22;;;;;;;15.11;72.71;100130.50;5130832;27;20043;-65
2024/03/05 11:28:48;;;;;;;3.53;0.40;;;;;;;15.09;76.78;100140.38;5132682;27;20034;-64
2024/03/05 11:31:16;;;;;;;8.52;0.28;;;;;;;14.98;75.40;100130.31;5130619;27;20078;-65
2024/03/05 11:33:46;;;;;;;5.07;0.30;;;;;;;14.91;80.34;100133.66;5130421;27;20039;-65